sensor_id;sensor_type;location;lat;lon;timestamp;temperature;humidity
42365;DHT22;28498;54.400;18.566;2023-11-19T00:00:08;1.60;99.90
42365;DHT22;28498;54.400;18.566;2023-11-19T00:02:40;1.50;99.90
42365;DHT22;28498;54.400;18.566;2023-11-19T00:05:09;1.60;99.90
42365;DHT22;28498;54.400;18.566;2023-11-19T00:07:39;1.50;99.90
42365;DHT22;28498;54.400;18.566;2023-11-19T00:10:14;1.60;99.90
42365;DHT22;28498;54.400;18.566;2023-11-19T00:12:47;1.50;99.90
42365;DHT22;28498;54.400;18.566;2023-11-19T00:15:15;1.50;99.90
42365;DHT22;28498;54.400;18.566;2023-11-19T00:17:43;1.50;99.90
42365;DHT22;28498;54.400;18.566;2023-11-19T00:20:19;1.50;99.90
42365;DHT22;28498;54.400;18.566;2023-11-19T00:22:46;1.50;99.90
42365;DHT22;28498;54.400;18.566;2023-11-19T00:25:19;1.50;99.90
42365;DHT22;28498;54.400;18.566;2023-11-19T00:27:47;1.50;99.90
42365;DHT22;28498;54.400;18.566;2023-11-19T00:30:14;1.50;99.90
42365;DHT22;28498;54.400;18.566;2023-11-19T00:32:42;1.60;99.90
42365;DHT22;28498;54.400;18.566;2023-11-19T00:35:09;1.60;99.90
42365;DHT22;28498;54.400;18.566;2023-11-19T00:37:43;1.60;99.90
42365;DHT22;28498;54.400;18.566;2023-11-19T00:40:13;1.60;99.90
42365;DHT22;28498;54.400;18.566;2023-11-19T00:42:40;1.60;99.90
42365;DHT22;28498;54.400;18.566;2023-11-19T00:45:07;1.60;99.90
42365;DHT22;28498;54.400;18.566;2023-11-19T00:47:37;1.50;99.90
42365;DHT22;28498;54.400;18.566;2023-11-19T00:50:04;1.50;99.90
42365;DHT22;28498;54.400;18.566;2023-11-19T00:52:31;1.50;99.90
42365;DHT22;28498;54.400;18.566;2023-11-19T00:54:58;1.40;99.90
42365;DHT22;28498;54.400;18.566;2023-11-19T00:57:25;1.40;99.90
42365;DHT22;28498;54.400;18.566;2023-11-19T00:59:53;1.50;99.90
42365;DHT22;28498;54.400;18.566;2023-11-19T01:02:20;1.60;99.90
42365;DHT22;28498;54.400;18.566;2023-11-19T01:04:47;1.40;99.90
42365;DHT22;28498;54.400;18.566;2023-11-19T01:07:14;1.40;99.90
42365;DHT22;28498;54.400;18.566;2023-11-19T01:09:42;1.40;99.90
42365;DHT22;28498;54.400;18.566;2023-11-19T01:12:09;1.40;99.90
42365;DHT22;28498;54.400;18.566;2023-11-19T01:14:37;1.40;99.90
42365;DHT22;28498;54.400;18.566;2023-11-19T01:17:04;1.40;99.90
42365;DHT22;28498;54.400;18.566;2023-11-19T01:19:31;1.30;99.90
42365;DHT22;28498;54.400;18.566;2023-11-19T01:21:59;1.30;99.90
42365;DHT22;28498;54.400;18.566;2023-11-19T01:24:26;1.30;99.90
42365;DHT22;28498;54.400;18.566;2023-11-19T01:26:55;1.30;99.90
42365;DHT22;28498;54.400;18.566;2023-11-19T01:29:24;1.30;99.90
42365;DHT22;28498;54.400;18.566;2023-11-19T01:31:51;1.30;99.90
42365;DHT22;28498;54.400;18.566;2023-11-19T01:34:18;1.30;99.90
42365;DHT22;28498;54.400;18.566;2023-11-19T01:36:47;1.30;99.90
42365;DHT22;28498;54.400;18.566;2023-11-19T01:39:16;1.30;99.90
42365;DHT22;28498;54.400;18.566;2023-11-19T01:41:43;1.30;99.90
42365;DHT22;28498;54.400;18.566;2023-11-19T01:44:10;1.30;99.90
42365;DHT22;28498;54.400;18.566;2023-11-19T01:46:41;1.30;99.90
42365;DHT22;28498;54.400;18.566;2023-11-19T01:49:09;1.30;99.90
42365;DHT22;28498;54.400;18.566;2023-11-19T01:51:36;1.40;99.90
42365;DHT22;28498;54.400;18.566;2023-11-19T01:54:03;1.40;99.90
42365;DHT22;28498;54.400;18.566;2023-11-19T01:56:31;1.40;99.90
42365;DHT22;28498;54.400;18.566;2023-11-19T01:58:59;1.40;99.90
42365;DHT22;28498;54.400;18.566;2023-11-19T02:01:27;1.40;99.90
42365;DHT22;28498;54.400;18.566;2023-11-19T02:03:56;1.40;99.90
42365;DHT22;28498;54.400;18.566;2023-11-19T02:06:26;1.30;99.90
42365;DHT22;28498;54.400;18.566;2023-11-19T02:08:53;1.40;99.90
42365;DHT22;28498;54.400;18.566;2023-11-19T02:11:20;1.20;99.90
42365;DHT22;28498;54.400;18.566;2023-11-19T02:13:47;1.20;99.90
42365;DHT22;28498;54.400;18.566;2023-11-19T02:16:14;1.10;99.90
42365;DHT22;28498;54.400;18.566;2023-11-19T02:18:41;1.10;99.90
42365;DHT22;28498;54.400;18.566;2023-11-19T02:21:09;1.00;99.90
42365;DHT22;28498;54.400;18.566;2023-11-19T02:23:37;1.00;99.90
42365;DHT22;28498;54.400;18.566;2023-11-19T02:28:33;0.90;99.90
42365;DHT22;28498;54.400;18.566;2023-11-19T02:31:00;0.90;99.90
42365;DHT22;28498;54.400;18.566;2023-11-19T02:33:27;0.90;99.90
42365;DHT22;28498;54.400;18.566;2023-11-19T02:35:54;0.90;99.90
42365;DHT22;28498;54.400;18.566;2023-11-19T02:38:21;0.90;99.90
42365;DHT22;28498;54.400;18.566;2023-11-19T02:40:49;0.90;99.90
42365;DHT22;28498;54.400;18.566;2023-11-19T02:43:16;0.80;99.90
42365;DHT22;28498;54.400;18.566;2023-11-19T02:45:43;0.80;99.90
42365;DHT22;28498;54.400;18.566;2023-11-19T02:48:12;0.80;99.90
42365;DHT22;28498;54.400;18.566;2023-11-19T02:50:42;0.80;99.90
42365;DHT22;28498;54.400;18.566;2023-11-19T02:53:09;0.70;99.90
42365;DHT22;28498;54.400;18.566;2023-11-19T02:55:37;0.70;99.90
42365;DHT22;28498;54.400;18.566;2023-11-19T02:58:06;0.70;99.90
42365;DHT22;28498;54.400;18.566;2023-11-19T03:00:47;0.60;99.90
42365;DHT22;28498;54.400;18.566;2023-11-19T03:03:28;0.60;99.90
42365;DHT22;28498;54.400;18.566;2023-11-19T03:05:58;0.50;99.90
42365;DHT22;28498;54.400;18.566;2023-11-19T03:08:25;0.40;99.90
42365;DHT22;28498;54.400;18.566;2023-11-19T03:10:52;0.40;99.90
42365;DHT22;28498;54.400;18.566;2023-11-19T03:13:19;0.40;99.90
42365;DHT22;28498;54.400;18.566;2023-11-19T03:15:46;0.30;99.90
42365;DHT22;28498;54.400;18.566;2023-11-19T03:18:13;0.30;99.90
42365;DHT22;28498;54.400;18.566;2023-11-19T03:20:40;0.20;99.90
42365;DHT22;28498;54.400;18.566;2023-11-19T03:23:07;0.10;99.90
42365;DHT22;28498;54.400;18.566;2023-11-19T03:25:34;0.10;99.90
42365;DHT22;28498;54.400;18.566;2023-11-19T03:28:03;0.10;99.90
42365;DHT22;28498;54.400;18.566;2023-11-19T03:30:31;0.00;99.90
42365;DHT22;28498;54.400;18.566;2023-11-19T03:33:00;0.00;99.90
42365;DHT22;28498;54.400;18.566;2023-11-19T03:35:29;-0.10;99.90
42365;DHT22;28498;54.400;18.566;2023-11-19T03:37:56;-0.20;99.90
42365;DHT22;28498;54.400;18.566;2023-11-19T03:40:23;-0.20;99.90
42365;DHT22;28498;54.400;18.566;2023-11-19T03:42:52;-0.30;99.90
42365;DHT22;28498;54.400;18.566;2023-11-19T03:45:19;-0.30;99.90
42365;DHT22;28498;54.400;18.566;2023-11-19T03:47:46;-0.30;99.90
42365;DHT22;28498;54.400;18.566;2023-11-19T03:50:13;-0.30;99.90
42365;DHT22;28498;54.400;18.566;2023-11-19T03:52:42;-0.40;99.90
42365;DHT22;28498;54.400;18.566;2023-11-19T03:55:10;-0.40;99.90
42365;DHT22;28498;54.400;18.566;2023-11-19T03:57:39;-0.30;99.90
42365;DHT22;28498;54.400;18.566;2023-11-19T04:00:06;-0.40;99.90
42365;DHT22;28498;54.400;18.566;2023-11-19T04:02:37;-0.40;99.90
42365;DHT22;28498;54.400;18.566;2023-11-19T04:05:04;-0.20;99.90
42365;DHT22;28498;54.400;18.566;2023-11-19T04:07:32;-0.10;99.90
42365;DHT22;28498;54.400;18.566;2023-11-19T04:09:59;-0.10;99.90
42365;DHT22;28498;54.400;18.566;2023-11-19T04:12:27;0.00;99.90
42365;DHT22;28498;54.400;18.566;2023-11-19T04:14:53;0.10;99.90
42365;DHT22;28498;54.400;18.566;2023-11-19T04:17:23;0.00;99.90
42365;DHT22;28498;54.400;18.566;2023-11-19T04:19:51;0.10;99.90
42365;DHT22;28498;54.400;18.566;2023-11-19T04:22:18;0.10;99.90
42365;DHT22;28498;54.400;18.566;2023-11-19T04:24:46;0.10;99.90
42365;DHT22;28498;54.400;18.566;2023-11-19T04:27:14;0.10;99.90
42365;DHT22;28498;54.400;18.566;2023-11-19T04:29:40;0.10;99.90
42365;DHT22;28498;54.400;18.566;2023-11-19T04:32:08;0.00;99.90
42365;DHT22;28498;54.400;18.566;2023-11-19T04:34:35;0.00;99.90
42365;DHT22;28498;54.400;18.566;2023-11-19T04:37:04;0.00;99.90
42365;DHT22;28498;54.400;18.566;2023-11-19T04:39:34;0.00;99.90
42365;DHT22;28498;54.400;18.566;2023-11-19T04:42:01;0.00;99.90
42365;DHT22;28498;54.400;18.566;2023-11-19T04:44:28;0.00;99.90
42365;DHT22;28498;54.400;18.566;2023-11-19T04:46:56;0.00;99.90
42365;DHT22;28498;54.400;18.566;2023-11-19T04:49:24;0.00;99.90
42365;DHT22;28498;54.400;18.566;2023-11-19T04:51:54;0.00;99.90
42365;DHT22;28498;54.400;18.566;2023-11-19T04:54:21;-0.10;99.90
42365;DHT22;28498;54.400;18.566;2023-11-19T04:56:48;0.00;99.90
42365;DHT22;28498;54.400;18.566;2023-11-19T04:59:15;0.10;99.90
42365;DHT22;28498;54.400;18.566;2023-11-19T05:01:47;0.00;99.90
42365;DHT22;28498;54.400;18.566;2023-11-19T05:04:14;0.00;99.90
42365;DHT22;28498;54.400;18.566;2023-11-19T05:06:42;0.00;99.90
42365;DHT22;28498;54.400;18.566;2023-11-19T05:09:09;-0.10;99.90
42365;DHT22;28498;54.400;18.566;2023-11-19T05:11:36;0.00;99.90
42365;DHT22;28498;54.400;18.566;2023-11-19T05:14:17;-0.10;99.90
42365;DHT22;28498;54.400;18.566;2023-11-19T05:16:46;-0.20;99.90
42365;DHT22;28498;54.400;18.566;2023-11-19T05:19:13;-0.20;99.90
42365;DHT22;28498;54.400;18.566;2023-11-19T05:21:44;-0.20;99.90
42365;DHT22;28498;54.400;18.566;2023-11-19T05:24:11;-0.20;99.90
42365;DHT22;28498;54.400;18.566;2023-11-19T05:26:39;-0.30;99.90
42365;DHT22;28498;54.400;18.566;2023-11-19T05:29:06;-0.40;99.90
42365;DHT22;28498;54.400;18.566;2023-11-19T05:31:33;-0.40;99.90
42365;DHT22;28498;54.400;18.566;2023-11-19T05:34:03;-0.50;99.90
42365;DHT22;28498;54.400;18.566;2023-11-19T05:36:31;-0.50;99.90
42365;DHT22;28498;54.400;18.566;2023-11-19T05:38:58;-0.60;99.90
42365;DHT22;28498;54.400;18.566;2023-11-19T05:41:25;-0.60;99.90
42365;DHT22;28498;54.400;18.566;2023-11-19T05:43:52;-0.80;99.90
42365;DHT22;28498;54.400;18.566;2023-11-19T05:46:19;-0.80;99.90
42365;DHT22;28498;54.400;18.566;2023-11-19T05:48:47;-0.80;99.90
42365;DHT22;28498;54.400;18.566;2023-11-19T05:51:15;-0.90;99.90
42365;DHT22;28498;54.400;18.566;2023-11-19T05:53:43;-0.80;99.90
42365;DHT22;28498;54.400;18.566;2023-11-19T05:56:13;-0.80;99.90
42365;DHT22;28498;54.400;18.566;2023-11-19T05:58:40;-0.30;99.90
42365;DHT22;28498;54.400;18.566;2023-11-19T06:01:07;-0.80;99.90
42365;DHT22;28498;54.400;18.566;2023-11-19T06:03:35;-0.20;99.90
42365;DHT22;28498;54.400;18.566;2023-11-19T06:06:04;-0.60;99.90
42365;DHT22;28498;54.400;18.566;2023-11-19T06:08:32;-0.90;99.90
42365;DHT22;28498;54.400;18.566;2023-11-19T06:10:59;-1.00;99.90
42365;DHT22;28498;54.400;18.566;2023-11-19T06:13:28;-0.90;99.90
42365;DHT22;28498;54.400;18.566;2023-11-19T06:15:58;-1.00;99.90
42365;DHT22;28498;54.400;18.566;2023-11-19T06:18:25;-1.10;99.90
42365;DHT22;28498;54.400;18.566;2023-11-19T06:20:53;-1.00;99.90
42365;DHT22;28498;54.400;18.566;2023-11-19T06:23:20;-1.00;99.90
42365;DHT22;28498;54.400;18.566;2023-11-19T06:25:47;-1.00;99.90
42365;DHT22;28498;54.400;18.566;2023-11-19T06:28:14;-0.90;99.90
42365;DHT22;28498;54.400;18.566;2023-11-19T06:30:41;-0.60;99.90
42365;DHT22;28498;54.400;18.566;2023-11-19T06:33:13;-1.00;99.90
42365;DHT22;28498;54.400;18.566;2023-11-19T06:35:41;-0.90;99.90
42365;DHT22;28498;54.400;18.566;2023-11-19T06:38:08;-0.90;99.90
42365;DHT22;28498;54.400;18.566;2023-11-19T06:40:35;-0.90;99.90
42365;DHT22;28498;54.400;18.566;2023-11-19T06:43:03;-1.00;99.90
42365;DHT22;28498;54.400;18.566;2023-11-19T06:45:31;-0.90;99.90
42365;DHT22;28498;54.400;18.566;2023-11-19T06:47:58;-0.90;99.90
42365;DHT22;28498;54.400;18.566;2023-11-19T06:50:27;-0.90;99.90
42365;DHT22;28498;54.400;18.566;2023-11-19T06:52:55;-0.60;99.90
42365;DHT22;28498;54.400;18.566;2023-11-19T06:55:22;-0.50;99.90
42365;DHT22;28498;54.400;18.566;2023-11-19T06:57:49;-0.90;99.90
42365;DHT22;28498;54.400;18.566;2023-11-19T07:00:16;-0.80;99.90
42365;DHT22;28498;54.400;18.566;2023-11-19T07:02:44;-0.90;99.90
42365;DHT22;28498;54.400;18.566;2023-11-19T07:05:12;-0.90;99.90
42365;DHT22;28498;54.400;18.566;2023-11-19T07:07:40;-0.90;99.90
42365;DHT22;28498;54.400;18.566;2023-11-19T07:10:07;-0.80;99.90
42365;DHT22;28498;54.400;18.566;2023-11-19T07:12:36;-0.80;99.90
42365;DHT22;28498;54.400;18.566;2023-11-19T07:15:04;-0.80;99.90
42365;DHT22;28498;54.400;18.566;2023-11-19T07:17:32;-0.70;99.90
42365;DHT22;28498;54.400;18.566;2023-11-19T07:19:59;-0.60;99.90
42365;DHT22;28498;54.400;18.566;2023-11-19T07:22:26;-0.50;99.90
42365;DHT22;28498;54.400;18.566;2023-11-19T07:24:53;-0.50;99.90
42365;DHT22;28498;54.400;18.566;2023-11-19T07:27:20;0.00;99.90
42365;DHT22;28498;54.400;18.566;2023-11-19T07:29:47;-0.40;99.90
42365;DHT22;28498;54.400;18.566;2023-11-19T07:32:14;-0.10;99.90
42365;DHT22;28498;54.400;18.566;2023-11-19T07:34:42;-0.20;99.90
42365;DHT22;28498;54.400;18.566;2023-11-19T07:37:09;-0.10;99.90
42365;DHT22;28498;54.400;18.566;2023-11-19T07:39:36;-0.10;99.90
42365;DHT22;28498;54.400;18.566;2023-11-19T07:42:07;0.10;99.90
42365;DHT22;28498;54.400;18.566;2023-11-19T07:44:36;0.10;99.90
42365;DHT22;28498;54.400;18.566;2023-11-19T07:47:04;0.10;99.90
42365;DHT22;28498;54.400;18.566;2023-11-19T07:49:31;0.20;99.90
42365;DHT22;28498;54.400;18.566;2023-11-19T07:51:58;0.30;99.90
42365;DHT22;28498;54.400;18.566;2023-11-19T07:54:26;0.30;99.90
42365;DHT22;28498;54.400;18.566;2023-11-19T07:56:53;0.40;99.90
42365;DHT22;28498;54.400;18.566;2023-11-19T07:59:20;0.40;99.90
42365;DHT22;28498;54.400;18.566;2023-11-19T08:01:47;0.50;99.90
42365;DHT22;28498;54.400;18.566;2023-11-19T08:04:15;0.50;99.90
42365;DHT22;28498;54.400;18.566;2023-11-19T08:06:42;0.50;99.90
42365;DHT22;28498;54.400;18.566;2023-11-19T08:12:56;0.50;99.90
42365;DHT22;28498;54.400;18.566;2023-11-19T08:15:23;0.60;99.90
42365;DHT22;28498;54.400;18.566;2023-11-19T08:17:53;0.60;99.90
42365;DHT22;28498;54.400;18.566;2023-11-19T08:20:20;0.70;99.90
42365;DHT22;28498;54.400;18.566;2023-11-19T08:22:47;0.80;99.90
42365;DHT22;28498;54.400;18.566;2023-11-19T08:25:15;0.80;99.90
42365;DHT22;28498;54.400;18.566;2023-11-19T08:27:42;0.80;99.90
42365;DHT22;28498;54.400;18.566;2023-11-19T08:30:10;0.90;99.90
42365;DHT22;28498;54.400;18.566;2023-11-19T08:32:37;0.90;99.90
42365;DHT22;28498;54.400;18.566;2023-11-19T08:35:04;0.90;99.90
42365;DHT22;28498;54.400;18.566;2023-11-19T08:37:32;0.90;99.90
42365;DHT22;28498;54.400;18.566;2023-11-19T08:39:59;0.80;99.90
42365;DHT22;28498;54.400;18.566;2023-11-19T08:42:27;0.90;99.90
42365;DHT22;28498;54.400;18.566;2023-11-19T08:44:55;0.90;99.90
42365;DHT22;28498;54.400;18.566;2023-11-19T08:47:22;0.90;99.90
42365;DHT22;28498;54.400;18.566;2023-11-19T08:49:52;0.90;99.90
42365;DHT22;28498;54.400;18.566;2023-11-19T08:52:23;1.00;99.90
42365;DHT22;28498;54.400;18.566;2023-11-19T08:54:50;1.00;99.90
42365;DHT22;28498;54.400;18.566;2023-11-19T08:57:17;1.00;99.90
42365;DHT22;28498;54.400;18.566;2023-11-19T08:59:44;1.00;99.90
42365;DHT22;28498;54.400;18.566;2023-11-19T09:02:13;1.00;99.90
42365;DHT22;28498;54.400;18.566;2023-11-19T09:04:40;1.10;99.90
42365;DHT22;28498;54.400;18.566;2023-11-19T09:07:08;1.20;99.90
42365;DHT22;28498;54.400;18.566;2023-11-19T09:09:36;1.30;99.90
42365;DHT22;28498;54.400;18.566;2023-11-19T09:12:03;1.40;99.90
42365;DHT22;28498;54.400;18.566;2023-11-19T09:14:31;1.50;99.90
42365;DHT22;28498;54.400;18.566;2023-11-19T09:16:58;1.90;99.90
42365;DHT22;28498;54.400;18.566;2023-11-19T09:19:25;2.20;99.90
42365;DHT22;28498;54.400;18.566;2023-11-19T09:21:53;2.00;99.90
42365;DHT22;28498;54.400;18.566;2023-11-19T09:24:20;2.10;99.90
42365;DHT22;28498;54.400;18.566;2023-11-19T09:26:47;2.00;99.90
42365;DHT22;28498;54.400;18.566;2023-11-19T09:29:14;2.10;99.90
42365;DHT22;28498;54.400;18.566;2023-11-19T09:31:42;2.40;99.90
42365;DHT22;28498;54.400;18.566;2023-11-19T09:34:09;2.50;99.90
42365;DHT22;28498;54.400;18.566;2023-11-19T09:36:36;2.70;99.90
42365;DHT22;28498;54.400;18.566;2023-11-19T09:39:03;2.80;99.90
42365;DHT22;28498;54.400;18.566;2023-11-19T09:41:32;2.80;99.90
42365;DHT22;28498;54.400;18.566;2023-11-19T09:43:59;2.80;99.90
42365;DHT22;28498;54.400;18.566;2023-11-19T09:46:26;2.50;99.90
42365;DHT22;28498;54.400;18.566;2023-11-19T09:48:55;2.30;99.90
42365;DHT22;28498;54.400;18.566;2023-11-19T09:51:22;2.10;99.90
42365;DHT22;28498;54.400;18.566;2023-11-19T09:53:49;2.00;99.90
42365;DHT22;28498;54.400;18.566;2023-11-19T09:56:17;1.80;99.90
42365;DHT22;28498;54.400;18.566;2023-11-19T09:58:45;1.70;99.90
42365;DHT22;28498;54.400;18.566;2023-11-19T10:01:14;1.60;99.90
42365;DHT22;28498;54.400;18.566;2023-11-19T10:07:32;1.50;99.90
42365;DHT22;28498;54.400;18.566;2023-11-19T10:13:43;1.70;99.90
42365;DHT22;28498;54.400;18.566;2023-11-19T10:16:15;1.60;99.90
42365;DHT22;28498;54.400;18.566;2023-11-19T10:18:46;1.70;99.90
42365;DHT22;28498;54.400;18.566;2023-11-19T10:21:14;1.50;99.90
42365;DHT22;28498;54.400;18.566;2023-11-19T10:23:52;1.50;99.90
42365;DHT22;28498;54.400;18.566;2023-11-19T10:26:20;1.60;99.90
42365;DHT22;28498;54.400;18.566;2023-11-19T10:28:48;1.50;99.90
42365;DHT22;28498;54.400;18.566;2023-11-19T10:31:16;1.90;99.90
42365;DHT22;28498;54.400;18.566;2023-11-19T10:33:44;1.40;99.90
42365;DHT22;28498;54.400;18.566;2023-11-19T10:36:12;1.50;99.90
42365;DHT22;28498;54.400;18.566;2023-11-19T10:38:40;1.40;99.90
42365;DHT22;28498;54.400;18.566;2023-11-19T10:41:07;1.40;99.90
42365;DHT22;28498;54.400;18.566;2023-11-19T10:43:44;1.30;99.90
42365;DHT22;28498;54.400;18.566;2023-11-19T10:46:12;1.40;99.90
42365;DHT22;28498;54.400;18.566;2023-11-19T10:48:40;1.40;99.90
42365;DHT22;28498;54.400;18.566;2023-11-19T10:51:08;1.40;99.90
42365;DHT22;28498;54.400;18.566;2023-11-19T10:53:37;1.50;99.90
42365;DHT22;28498;54.400;18.566;2023-11-19T10:56:09;1.50;99.90
42365;DHT22;28498;54.400;18.566;2023-11-19T10:58:38;1.50;99.90
42365;DHT22;28498;54.400;18.566;2023-11-19T11:01:18;1.60;99.90
42365;DHT22;28498;54.400;18.566;2023-11-19T11:03:47;1.50;99.90
42365;DHT22;28498;54.400;18.566;2023-11-19T11:06:18;1.50;99.90
42365;DHT22;28498;54.400;18.566;2023-11-19T11:08:46;1.50;99.90
42365;DHT22;28498;54.400;18.566;2023-11-19T11:11:15;1.50;99.90
42365;DHT22;28498;54.400;18.566;2023-11-19T11:13:44;1.50;99.90
42365;DHT22;28498;54.400;18.566;2023-11-19T11:16:13;1.50;99.90
42365;DHT22;28498;54.400;18.566;2023-11-19T11:18:41;1.60;99.90
42365;DHT22;28498;54.400;18.566;2023-11-19T11:21:16;1.70;99.90
42365;DHT22;28498;54.400;18.566;2023-11-19T11:29:26;1.70;99.90
42365;DHT22;28498;54.400;18.566;2023-11-19T11:34:57;1.50;99.90
42365;DHT22;28498;54.400;18.566;2023-11-19T11:40:02;1.50;99.90
42365;DHT22;28498;54.400;18.566;2023-11-19T11:42:33;1.60;99.90
42365;DHT22;28498;54.400;18.566;2023-11-19T11:45:11;1.60;99.90
42365;DHT22;28498;54.400;18.566;2023-11-19T11:50:14;1.50;99.90
42365;DHT22;28498;54.400;18.566;2023-11-19T12:02:07;1.60;99.90
42365;DHT22;28498;54.400;18.566;2023-11-19T12:04:36;1.60;99.90
42365;DHT22;28498;54.400;18.566;2023-11-19T12:07:14;1.60;99.90
42365;DHT22;28498;54.400;18.566;2023-11-19T12:09:47;1.60;99.90
42365;DHT22;28498;54.400;18.566;2023-11-19T12:15:00;1.60;99.90
42365;DHT22;28498;54.400;18.566;2023-11-19T12:20:02;1.50;99.90
42365;DHT22;28498;54.400;18.566;2023-11-19T12:22:39;1.40;99.90
42365;DHT22;28498;54.400;18.566;2023-11-19T12:25:11;1.50;99.90
42365;DHT22;28498;54.400;18.566;2023-11-19T12:27:50;1.50;99.90
42365;DHT22;28498;54.400;18.566;2023-11-19T12:30:21;1.50;99.90
42365;DHT22;28498;54.400;18.566;2023-11-19T12:32:49;1.60;99.90
42365;DHT22;28498;54.400;18.566;2023-11-19T12:35:16;1.60;99.90
42365;DHT22;28498;54.400;18.566;2023-11-19T12:37:48;1.60;99.90
42365;DHT22;28498;54.400;18.566;2023-11-19T12:40:20;1.50;99.90
42365;DHT22;28498;54.400;18.566;2023-11-19T12:42:52;1.50;99.90
42365;DHT22;28498;54.400;18.566;2023-11-19T12:49:07;1.40;99.90
42365;DHT22;28498;54.400;18.566;2023-11-19T12:51:37;1.40;99.90
42365;DHT22;28498;54.400;18.566;2023-11-19T12:54:05;1.40;99.90
42365;DHT22;28498;54.400;18.566;2023-11-19T12:56:32;1.50;99.90
42365;DHT22;28498;54.400;18.566;2023-11-19T12:59:10;1.50;99.90
42365;DHT22;28498;54.400;18.566;2023-11-19T13:01:38;1.60;99.90
42365;DHT22;28498;54.400;18.566;2023-11-19T13:04:28;1.60;99.90
42365;DHT22;28498;54.400;18.566;2023-11-19T13:07:00;1.50;99.90
42365;DHT22;28498;54.400;18.566;2023-11-19T13:09:30;1.40;99.90
42365;DHT22;28498;54.400;18.566;2023-11-19T13:11:57;1.40;99.90
42365;DHT22;28498;54.400;18.566;2023-11-19T13:14:36;1.40;99.90
42365;DHT22;28498;54.400;18.566;2023-11-19T13:17:06;1.50;99.90
42365;DHT22;28498;54.400;18.566;2023-11-19T13:19:34;1.50;99.90
42365;DHT22;28498;54.400;18.566;2023-11-19T13:22:01;1.60;99.90
42365;DHT22;28498;54.400;18.566;2023-11-19T13:24:28;1.60;99.90
42365;DHT22;28498;54.400;18.566;2023-11-19T13:30:43;1.70;99.90
42365;DHT22;28498;54.400;18.566;2023-11-19T13:33:10;1.50;99.90
42365;DHT22;28498;54.400;18.566;2023-11-19T13:35:39;1.50;99.90
42365;DHT22;28498;54.400;18.566;2023-11-19T13:38:10;1.50;99.90
42365;DHT22;28498;54.400;18.566;2023-11-19T13:40:37;1.50;99.90
42365;DHT22;28498;54.400;18.566;2023-11-19T13:43:04;1.50;99.90
42365;DHT22;28498;54.400;18.566;2023-11-19T13:45:31;1.50;99.90
42365;DHT22;28498;54.400;18.566;2023-11-19T13:47:58;1.50;99.90
42365;DHT22;28498;54.400;18.566;2023-11-19T13:50:25;1.40;99.90
42365;DHT22;28498;54.400;18.566;2023-11-19T13:52:52;1.40;99.90
42365;DHT22;28498;54.400;18.566;2023-11-19T13:55:19;1.40;99.90
42365;DHT22;28498;54.400;18.566;2023-11-19T13:57:46;1.40;99.90
42365;DHT22;28498;54.400;18.566;2023-11-19T14:00:15;1.40;99.90
42365;DHT22;28498;54.400;18.566;2023-11-19T14:02:46;1.40;99.90
42365;DHT22;28498;54.400;18.566;2023-11-19T14:05:15;1.30;99.90
42365;DHT22;28498;54.400;18.566;2023-11-19T14:08:07;1.30;99.90
42365;DHT22;28498;54.400;18.566;2023-11-19T14:10:51;1.30;99.90
42365;DHT22;28498;54.400;18.566;2023-11-19T14:13:19;1.30;99.90
42365;DHT22;28498;54.400;18.566;2023-11-19T14:15:46;1.20;99.90
42365;DHT22;28498;54.400;18.566;2023-11-19T14:18:16;1.30;99.90
42365;DHT22;28498;54.400;18.566;2023-11-19T14:20:43;1.30;99.90
42365;DHT22;28498;54.400;18.566;2023-11-19T14:23:11;1.30;99.90
42365;DHT22;28498;54.400;18.566;2023-11-19T14:25:38;1.30;99.90
42365;DHT22;28498;54.400;18.566;2023-11-19T14:28:05;1.30;99.90
42365;DHT22;28498;54.400;18.566;2023-11-19T14:30:33;1.20;99.90
42365;DHT22;28498;54.400;18.566;2023-11-19T14:33:01;1.30;99.90
42365;DHT22;28498;54.400;18.566;2023-11-19T14:35:30;1.20;99.90
42365;DHT22;28498;54.400;18.566;2023-11-19T14:37:57;1.20;99.90
42365;DHT22;28498;54.400;18.566;2023-11-19T14:40:24;1.10;99.90
42365;DHT22;28498;54.400;18.566;2023-11-19T14:42:54;1.10;99.90
42365;DHT22;28498;54.400;18.566;2023-11-19T14:45:21;1.20;99.90
42365;DHT22;28498;54.400;18.566;2023-11-19T14:47:49;1.10;99.90
42365;DHT22;28498;54.400;18.566;2023-11-19T14:50:16;1.10;99.90
42365;DHT22;28498;54.400;18.566;2023-11-19T14:52:43;1.10;99.90
42365;DHT22;28498;54.400;18.566;2023-11-19T14:55:10;1.10;99.90
42365;DHT22;28498;54.400;18.566;2023-11-19T14:57:38;1.10;99.90
42365;DHT22;28498;54.400;18.566;2023-11-19T15:00:07;1.10;99.90
42365;DHT22;28498;54.400;18.566;2023-11-19T15:02:43;1.10;99.90
42365;DHT22;28498;54.400;18.566;2023-11-19T15:09:10;1.10;99.90
42365;DHT22;28498;54.400;18.566;2023-11-19T15:11:44;1.10;99.90
42365;DHT22;28498;54.400;18.566;2023-11-19T15:14:16;1.10;99.90
42365;DHT22;28498;54.400;18.566;2023-11-19T15:16:46;1.10;99.90
42365;DHT22;28498;54.400;18.566;2023-11-19T15:19:13;1.00;99.90
42365;DHT22;28498;54.400;18.566;2023-11-19T15:21:41;1.00;99.90
42365;DHT22;28498;54.400;18.566;2023-11-19T15:24:09;1.00;99.90
42365;DHT22;28498;54.400;18.566;2023-11-19T15:26:37;1.00;99.90
42365;DHT22;28498;54.400;18.566;2023-11-19T15:29:05;1.00;99.90
42365;DHT22;28498;54.400;18.566;2023-11-19T15:31:32;1.00;99.90
42365;DHT22;28498;54.400;18.566;2023-11-19T15:33:59;1.00;99.90
42365;DHT22;28498;54.400;18.566;2023-11-19T15:36:26;1.00;99.90
42365;DHT22;28498;54.400;18.566;2023-11-19T15:38:53;1.00;99.90
42365;DHT22;28498;54.400;18.566;2023-11-19T15:41:20;0.90;99.90
42365;DHT22;28498;54.400;18.566;2023-11-19T15:43:47;0.90;99.90
42365;DHT22;28498;54.400;18.566;2023-11-19T15:46:14;0.90;99.90
42365;DHT22;28498;54.400;18.566;2023-11-19T15:48:43;0.90;99.90
42365;DHT22;28498;54.400;18.566;2023-11-19T15:51:10;0.90;99.90
42365;DHT22;28498;54.400;18.566;2023-11-19T15:53:37;0.90;99.90
42365;DHT22;28498;54.400;18.566;2023-11-19T15:56:06;0.90;99.90
42365;DHT22;28498;54.400;18.566;2023-11-19T15:58:33;0.90;99.90
42365;DHT22;28498;54.400;18.566;2023-11-19T16:01:01;0.90;99.90
42365;DHT22;28498;54.400;18.566;2023-11-19T16:03:28;0.90;99.90
42365;DHT22;28498;54.400;18.566;2023-11-19T16:06:16;0.90;99.90
42365;DHT22;28498;54.400;18.566;2023-11-19T16:08:44;0.90;99.90
42365;DHT22;28498;54.400;18.566;2023-11-19T16:11:12;1.00;99.90
42365;DHT22;28498;54.400;18.566;2023-11-19T16:13:40;0.90;99.90
42365;DHT22;28498;54.400;18.566;2023-11-19T16:16:07;0.90;99.90
42365;DHT22;28498;54.400;18.566;2023-11-19T16:18:37;0.90;99.90
42365;DHT22;28498;54.400;18.566;2023-11-19T16:21:04;0.90;99.90
42365;DHT22;28498;54.400;18.566;2023-11-19T16:23:31;1.00;99.90
42365;DHT22;28498;54.400;18.566;2023-11-19T16:25:58;0.90;99.90
42365;DHT22;28498;54.400;18.566;2023-11-19T16:28:26;0.90;99.90